Time,TemperatureF,DewpointF,PressureIn,WindDirection,WindDirectionDegrees,WindSpeedMPH,WindSpeedGustMPH,Humidity,HourlyPrecipIn,Conditions,Clouds,dailyrainin,SoftwareType,DateUTC
2013-07-01 00:01:00,65.2,56.0,30.01,ENE,71,5.0,8.0,71,0.00,,,0.00,weatherlink.com 1.10,2013-07-01 05:01:00,
2013-07-01 00:16:00,64.8,55.0,30.01,ENE,59,5.0,7.0,71,0.00,,,0.00,weatherlink.com 1.10,2013-07-01 05:16:00,
2013-07-01 00:31:00,64.6,55.0,30.01,ENE,73,4.0,7.0,71,0.00,,,0.00,weatherlink.com 1.10,2013-07-01 05:31:00,
2013-07-01 00:46:00,63.9,55.0,30.00,ENE,67,2.0,4.0,72,0.00,,,0.00,weatherlink.com 1.10,2013-07-01 05:46:00,
2013-07-01 01:01:00,63.3,55.0,30.00,ENE,68,2.0,5.0,73,0.00,,,0.00,weatherlink.com 1.10,2013-07-01 06:01:00,
2013-07-01 01:16:00,62.8,54.0,30.00,NE,49,3.0,4.0,74,0.00,,,0.00,weatherlink.com 1.10,2013-07-01 06:16:00,
2013-07-01 01:31:00,62.6,54.0,30.01,ENE,65,4.0,6.0,74,0.00,,,0.00,weatherlink.com 1.10,2013-07-01 06:31:00,
2013-07-01 01:46:00,62.6,54.0,30.01,NE,42,5.0,5.0,74,0.00,,,0.00,weatherlink.com 1.10,2013-07-01 06:46:00,
2013-07-01 02:01:00,62.4,54.0,30.01,NE,47,5.0,7.0,73,0.00,,,0.00,weatherlink.com 1.10,2013-07-01 07:01:00,
2013-07-01 02:16:00,61.9,54.0,30.00,NNE,22,6.0,6.0,74,0.00,,,0.00,weatherlink.com 1.10,2013-07-01 07:16:00,
2013-07-01 02:31:00,61.1,54.0,30.00,NE,49,4.0,8.0,77,0.00,,,0.00,weatherlink.com 1.10,2013-07-01 07:31:00,
2013-07-01 02:46:00,60.9,54.0,30.00,NE,49,7.0,8.0,77,0.00,,,0.00,weatherlink.com 1.10,2013-07-01 07:46:00,
2013-07-01 03:01:00,60.3,54.0,30.00,NNE,33,5.0,8.0,79,0.00,,,0.00,weatherlink.com 1.10,2013-07-01 08:01:00,
2013-07-01 03:16:00,59.8,53.0,30.00,NE,36,6.0,8.0,79,0.00,,,0.00,weatherlink.com 1.10,2013-07-01 08:16:00,
2013-07-01 03:31:00,59.7,53.0,30.00,NE,47,5.0,8.0,78,0.00,,,0.00,weatherlink.com 1.10,2013-07-01 08:31:00,
2013-07-01 03:46:00,59.6,52.0,30.00,NNE,28,7.0,9.0,77,0.00,,,0.00,weatherlink.com 1.10,2013-07-01 08:46:00,
2013-07-01 04:01:00,59.1,52.0,30.01,NE,36,6.0,9.0,78,0.00,,,0.00,weatherlink.com 1.10,2013-07-01 09:01:00,
2013-07-01 04:16:00,58.9,52.0,30.01,NNE,30,7.0,8.0,79,0.00,,,0.00,weatherlink.com 1.10,2013-07-01 09:16:00,
2013-07-01 04:32:00,58.6,52.0,30.01,NE,54,7.0,7.0,79,0.00,,,0.00,weatherlink.com 1.10,2013-07-01 09:32:00,
2013-07-01 04:47:00,58.8,52.0,30.02,ENE,69,7.0,8.0,78,0.00,,,0.00,weatherlink.com 1.10,2013-07-01 09:47:00,
2013-07-01 05:02:00,59.0,52.0,30.02,ENE,59,6.0,8.0,78,0.00,,,0.00,weatherlink.com 1.10,2013-07-01 10:02:00,
2013-07-01 05:17:00,59.3,52.0,30.02,NE,51,5.0,9.0,76,0.00,,,0.00,weatherlink.com 1.10,2013-07-01 10:17:00,
2013-07-01 05:32:00,59.4,51.0,30.02,NE,54,4.0,8.0,75,0.00,,,0.00,weatherlink.com 1.10,2013-07-01 10:32:00,
2013-07-01 05:47:00,59.0,51.0,30.02,NE,39,5.0,7.0,76,0.00,,,0.00,weatherlink.com 1.10,2013-07-01 10:47:00,
2013-07-01 06:02:00,59.1,52.0,30.03,NNE,22,6.0,10.0,76,0.00,,,0.00,weatherlink.com 1.10,2013-07-01 11:02:00,
2013-07-01 06:17:00,60.3,52.0,30.03,ENE,73,4.0,9.0,73,0.00,,,0.00,weatherlink.com 1.10,2013-07-01 11:17:00,
2013-07-01 06:32:00,60.8,52.0,30.03,NE,42,7.0,7.0,73,0.00,,,0.00,weatherlink.com 1.10,2013-07-01 11:32:00,
2013-07-01 06:47:00,60.9,53.0,30.03,ENE,74,6.0,8.0,74,0.00,,,0.00,weatherlink.com 1.10,2013-07-01 11:47:00,
2013-07-01 07:02:00,62.0,52.0,30.03,ENE,70,8.0,11.0,71,0.00,,,0.00,weatherlink.com 1.10,2013-07-01 12:02:00,
2013-07-01 07:17:00,62.9,52.0,30.04,ENE,57,11.0,12.0,68,0.00,,,0.00,weatherlink.com 1.10,2013-07-01 12:17:00,
2013-07-01 07:32:00,63.4,52.0,30.04,ENE,70,10.0,15.0,67,0.00,,,0.00,weatherlink.com 1.10,2013-07-01 12:32:00,
2013-07-01 07:47:00,64.0,53.0,30.05,ESE,106,7.0,12.0,67,0.00,,,0.00,weatherlink.com 1.10,2013-07-01 12:47:00,
2013-07-01 08:02:00,64.7,53.0,30.05,ENE,73,12.0,13.0,65,0.00,,,0.00,weatherlink.com 1.10,2013-07-01 13:02:00,
2013-07-01 08:17:00,65.3,53.0,30.05,ENE,63,10.0,15.0,64,0.00,,,0.00,weatherlink.com 1.10,2013-07-01 13:17:00,
2013-07-01 08:32:00,65.8,53.0,30.06,ENE,70,12.0,14.0,64,0.00,,,0.00,weatherlink.com 1.10,2013-07-01 13:32:00,
2013-07-01 08:47:00,66.3,53.0,30.06,ENE,77,12.0,14.0,63,0.00,,,0.00,weatherlink.com 1.10,2013-07-01 13:47:00,
2013-07-01 09:02:00,66.9,54.0,30.06,East,95,9.0,11.0,63,0.00,,,0.00,weatherlink.com 1.10,2013-07-01 14:02:00,
2013-07-01 09:17:00,67.5,55.0,30.06,ENE,75,7.0,12.0,64,0.00,,,0.00,weatherlink.com 1.10,2013-07-01 14:17:00,
2013-07-01 09:32:00,68.6,55.0,30.06,ENE,59,6.0,9.0,62,0.00,,,0.00,weatherlink.com 1.10,2013-07-01 14:32:00,
2013-07-01 09:47:00,69.1,55.0,30.07,ENE,59,5.0,10.0,61,0.00,,,0.00,weatherlink.com 1.10,2013-07-01 14:47:00,
2013-07-01 10:02:00,69.8,55.0,30.07,East,101,6.0,11.0,59,0.00,,,0.00,weatherlink.com 1.10,2013-07-01 15:02:00,
2013-07-01 10:17:00,70.7,56.0,30.06,East,79,7.0,11.0,59,0.00,,,0.00,weatherlink.com 1.10,2013-07-01 15:17:00,
2013-07-01 10:32:00,71.1,54.0,30.06,East,97,10.0,14.0,56,0.00,,,0.00,weatherlink.com 1.10,2013-07-01 15:32:00,
2013-07-01 10:47:00,71.7,54.0,30.06,East,92,9.0,12.0,54,0.00,,,0.00,weatherlink.com 1.10,2013-07-01 15:47:00,
2013-07-01 11:02:00,71.9,54.0,30.06,NE,46,7.0,13.0,54,0.00,,,0.00,weatherlink.com 1.10,2013-07-01 16:02:00,
2013-07-01 11:17:00,72.8,55.0,30.06,East,99,12.0,14.0,53,0.00,,,0.00,weatherlink.com 1.10,2013-07-01 16:17:00,
2013-07-01 11:32:00,73.0,54.0,30.06,NE,40,8.0,13.0,52,0.00,,,0.00,weatherlink.com 1.10,2013-07-01 16:32:00,
2013-07-01 11:48:00,73.7,53.0,30.06,ENE,66,12.0,16.0,49,0.00,,,0.00,weatherlink.com 1.10,2013-07-01 16:48:00,
2013-07-01 12:03:00,74.0,54.0,30.06,ESE,114,7.0,15.0,50,0.00,,,0.00,weatherlink.com 1.10,2013-07-01 17:03:00,
2013-07-01 12:18:00,74.1,54.0,30.05,ENE,73,8.0,17.0,50,0.00,,,0.00,weatherlink.com 1.10,2013-07-01 17:18:00,
2013-07-01 12:33:00,74.8,55.0,30.05,ENE,63,6.0,18.0,51,0.00,,,0.00,weatherlink.com 1.10,2013-07-01 17:33:00,
2013-07-01 12:48:00,75.1,55.0,30.05,ESE,112,8.0,17.0,50,0.00,,,0.00,weatherlink.com 1.10,2013-07-01 17:48:00,
2013-07-01 13:02:00,75.5,51.0,30.05,East,83,6.0,19.0,43,0.00,,,0.00,weatherlink.com 1.10,2013-07-01 18:02:00,
2013-07-01 13:18:00,75.9,51.0,30.05,East,79,6.0,15.0,42,0.00,,,0.00,weatherlink.com 1.10,2013-07-01 18:18:00,
2013-07-01 13:33:00,76.4,53.0,30.04,ESE,110,12.0,20.0,44,0.00,,,0.00,weatherlink.com 1.10,2013-07-01 18:33:00,
2013-07-01 13:48:00,77.1,55.0,30.04,NE,53,7.0,13.0,46,0.00,,,0.00,weatherlink.com 1.10,2013-07-01 18:48:00,
2013-07-01 14:03:00,77.3,53.0,30.04,ENE,63,9.0,18.0,43,0.00,,,0.00,weatherlink.com 1.10,2013-07-01 19:03:00,
2013-07-01 14:18:00,77.2,53.0,30.04,ENE,63,14.0,20.0,43,0.00,,,0.00,weatherlink.com 1.10,2013-07-01 19:18:00,
2013-07-01 14:33:00,77.5,53.0,30.04,East,81,13.0,20.0,43,0.00,,,0.00,weatherlink.com 1.10,2013-07-01 19:33:00,
2013-07-01 14:48:00,77.6,52.0,30.04,East,82,8.0,21.0,41,0.00,,,0.00,weatherlink.com 1.10,2013-07-01 19:48:00,
2013-07-01 15:03:00,77.9,52.0,30.04,ESE,117,12.0,17.0,41,0.00,,,0.00,weatherlink.com 1.10,2013-07-01 20:03:00,
2013-07-01 15:18:00,78.0,51.0,30.04,East,99,11.0,20.0,39,0.00,,,0.00,weatherlink.com 1.10,2013-07-01 20:18:00,
2013-07-01 15:33:00,77.8,51.0,30.04,ENE,74,6.0,20.0,39,0.00,,,0.00,weatherlink.com 1.10,2013-07-01 20:33:00,
2013-07-01 15:48:00,78.2,52.0,30.04,East,97,11.0,20.0,40,0.00,,,0.00,weatherlink.com 1.10,2013-07-01 20:48:00,
2013-07-01 16:03:00,77.9,52.0,30.04,SE,145,4.0,21.0,40,0.00,,,0.00,weatherlink.com 1.10,2013-07-01 21:03:00,
2013-07-01 16:18:00,78.2,52.0,30.04,NNE,14,5.0,19.0,40,0.00,,,0.00,weatherlink.com 1.10,2013-07-01 21:18:00,
2013-07-01 16:33:00,78.1,52.0,30.04,ENE,70,15.0,20.0,40,0.00,,,0.00,weatherlink.com 1.10,2013-07-01 21:33:00,
2013-07-01 16:48:00,77.6,51.0,30.04,ESE,102,6.0,19.0,39,0.00,,,0.00,weatherlink.com 1.10,2013-07-01 21:48:00,
2013-07-01 17:03:00,77.9,52.0,30.04,ESE,117,8.0,18.0,41,0.00,,,0.00,weatherlink.com 1.10,2013-07-01 22:03:00,
2013-07-01 17:18:00,77.7,51.0,30.04,ENE,59,6.0,20.0,40,0.00,,,0.00,weatherlink.com 1.10,2013-07-01 22:18:00,
2013-07-01 17:33:00,77.8,51.0,30.04,East,96,10.0,17.0,39,0.00,,,0.00,weatherlink.com 1.10,2013-07-01 22:33:00,
2013-07-01 17:48:00,77.6,51.0,30.04,East,100,7.0,18.0,40,0.00,,,0.00,weatherlink.com 1.10,2013-07-01 22:48:00,
2013-07-01 18:03:00,77.6,53.0,30.04,ESE,117,4.0,16.0,42,0.00,,,0.00,weatherlink.com 1.10,2013-07-01 23:03:00,
2013-07-01 18:18:00,77.6,53.0,30.04,ENE,70,4.0,15.0,42,0.00,,,0.00,weatherlink.com 1.10,2013-07-01 23:18:00,
2013-07-01 18:33:00,77.5,53.0,30.04,ENE,78,10.0,14.0,42,0.00,,,0.00,weatherlink.com 1.10,2013-07-01 23:33:00,
2013-07-01 18:48:00,77.3,54.0,30.04,ESE,123,6.0,16.0,44,0.00,,,0.00,weatherlink.com 1.10,2013-07-01 23:48:00,
2013-07-01 19:03:00,77.0,53.0,30.04,East,82,8.0,13.0,44,0.00,,,0.00,weatherlink.com 1.10,2013-07-02 00:03:00,
2013-07-01 19:18:00,76.8,53.0,30.04,ENE,75,4.0,14.0,44,0.00,,,0.00,weatherlink.com 1.10,2013-07-02 00:18:00,
2013-07-01 19:33:00,76.3,53.0,30.04,East,96,4.0,10.0,45,0.00,,,0.00,weatherlink.com 1.10,2013-07-02 00:33:00,
2013-07-01 19:48:00,75.6,53.0,30.04,ENE,75,5.0,9.0,46,0.00,,,0.00,weatherlink.com 1.10,2013-07-02 00:48:00,
2013-07-01 20:03:00,75.0,53.0,30.04,ESE,106,5.0,9.0,47,0.00,,,0.00,weatherlink.com 1.10,2013-07-02 01:03:00,
2013-07-01 20:18:00,74.0,53.0,30.04,East,81,3.0,7.0,48,0.00,,,0.00,weatherlink.com 1.10,2013-07-02 01:18:00,
2013-07-01 20:33:00,72.8,53.0,30.04,ENE,73,4.0,7.0,50,0.00,,,0.00,weatherlink.com 1.10,2013-07-02 01:33:00,
2013-07-01 20:48:00,71.8,53.0,30.04,East,88,3.0,6.0,52,0.00,,,0.00,weatherlink.com 1.10,2013-07-02 01:48:00,
2013-07-01 21:03:00,71.0,53.0,30.05,ENE,71,6.0,8.0,53,0.00,,,0.00,weatherlink.com 1.10,2013-07-02 02:03:00,
2013-07-01 21:18:00,70.5,53.0,30.05,East,90,5.0,7.0,54,0.00,,,0.00,weatherlink.com 1.10,2013-07-02 02:18:00,
2013-07-01 21:33:00,70.0,53.0,30.05,NE,53,3.0,6.0,55,0.00,,,0.00,weatherlink.com 1.10,2013-07-02 02:33:00,
2013-07-01 21:48:00,69.4,53.0,30.06,ENE,74,2.0,4.0,57,0.00,,,0.00,weatherlink.com 1.10,2013-07-02 02:48:00,
2013-07-01 22:03:00,68.4,54.0,30.06,ENE,70,3.0,5.0,61,0.00,,,0.00,weatherlink.com 1.10,2013-07-02 03:03:00,
2013-07-01 22:18:00,68.4,54.0,30.06,ENE,70,4.0,5.0,60,0.00,,,0.00,weatherlink.com 1.10,2013-07-02 03:18:00,
2013-07-01 22:33:00,68.1,54.0,30.06,ENE,78,3.0,5.0,60,0.00,,,0.00,weatherlink.com 1.10,2013-07-02 03:33:00,
2013-07-01 22:48:00,68.0,53.0,30.06,East,80,3.0,4.0,60,0.00,,,0.00,weatherlink.com 1.10,2013-07-02 03:48:00,
2013-07-01 23:03:00,68.1,54.0,30.07,ENE,67,0.0,5.0,60,0.00,,,0.00,weatherlink.com 1.10,2013-07-02 04:03:00,
2013-07-01 23:18:00,67.1,53.0,30.06,ENE,75,2.0,5.0,62,0.00,,,0.00,weatherlink.com 1.10,2013-07-02 04:18:00,
2013-07-01 23:33:00,66.7,54.0,30.06,ENE,71,2.0,3.0,63,0.00,,,0.00,weatherlink.com 1.10,2013-07-02 04:33:00,
2013-07-01 23:48:00,66.5,53.0,30.06,ENE,70,4.0,4.0,63,0.00,,,0.00,weatherlink.com 1.10,2013-07-02 04:48:00,